Terminal Aerodrome Forecast
Issued by NWS Wilmington, NC

Home | Current Version | Previous Version | Text Only | Print | Product List | Glossary On
Versions: 1 2 3 4 5 6 7 8 9 10 11 12 13
000
FTUS42 KILM 222334
TAFILM
TAF
KILM 222334Z 2300/2324 11004KT P6SM SCT035
     FM231500 14011G21KT P6SM VCSH BKN035
     FM231800 15013G23KT P6SM BKN025
      TEMPO 2320/2324 P6SM -SHRA OVC020=

USA.gov is the U.S. government's official web portal to all federal, state and local government web resources and services.